Latest Coastal Weather Observations for Dum In Mirrie

IDD60701

Issued at 6:05 am CST Friday 24 October 2014 (issued every 10 minutes, with the page automatically refreshed every 10 minutes)

About coastal observations | Map of coastal stations | Coastal observations for NT | Marine services | Other Formats
Station Details ID: 014277 Name: DUM IN MIRRIE AIRSTRIP Lat: -12.63 Lon: 130.37 Height: 3.5 m
Data from the previous 72 hours. | See also: Recent months at Dum In Mirrie
Date/Time
CST
Temp

°C
Wind Pressure Rain
since 9am
mm
Weather Cloud Vis
km
Sea
Height
m
Swell
Dir
 
Speed
knots
Gust
knots
hPa Trend Height
m
Period
s
Dir
24/06:00am 24.1 NNE 1 3 1012.8 - 0.0 - - - - - - -
24/05:30am 24.1 NNE 2 4 1012.5 - 0.0 - - - - - - -
24/05:00am 23.9 NNE 2 3 1012.4 - 0.0 - - - - - - -
24/04:30am 25.0 NE 1 3 1012.5 - 0.0 - - - - - - -
24/04:00am 26.0 NNE 2 2 1012.2 - 0.0 - - - - - - -
24/03:30am 26.8 NE 2 3 1012.1 - 0.0 - - - - - - -
24/03:00am 27.4 N 3 5 1012.3 - 0.0 - - - - - - -
24/02:30am 27.3 N 2 4 1012.4 - 0.0 - - - - - - -
24/02:00am 27.4 NNW 3 5 1012.6 - 0.0 - - - - - - -
24/01:30am 27.6 N 3 5 1013.0 - 0.0 - - - - - - -
24/01:00am 27.8 NNW 4 6 1012.9 - 0.0 - - - - - - -
24/12:30am 27.7 NNW 3 6 1013.1 - 0.0 - - - - - - -
24/12:00am 27.5 NNW 2 4 1013.4 - 0.0 - - - - - - -
 
Date/Time
CST
Temp

°C
Wind Pressure Rain
since 9am
mm
Weather Cloud Vis
km
Sea
Height
m
Swell
Dir
 
Speed
knots
Gust
knots
hPa Trend Height
m
Period
s
Dir
23/11:30pm 27.8 NNW 3 5 1013.5 - 0.0 - - - - - - -
23/11:00pm 28.1 NW 3 6 1013.4 - 0.0 - - - - - - -
23/10:30pm 28.4 WNW 3 5 1013.0 - 0.0 - - - - - - -
23/10:00pm 28.7 W 4 8 1012.7 - 0.0 - - - - - - -
23/09:30pm 28.8 WSW 3 8 1012.1 - 0.0 - - - - - - -
23/09:00pm 28.8 WSW 3 6 1011.7 - 0.0 - - - - - - -
23/08:30pm 28.6 SW 2 5 1011.3 - 0.0 - - - - - - -
23/08:00pm 27.6 WSW 2 4 1011.1 - 0.0 - - - - - - -
23/07:30pm 26.8 CALM 0 2 1010.8 - 0.0 - - - - - - -
23/07:00pm 28.5 CALM 0 0 1010.6 - 0.0 - - - - - - -
23/06:30pm 29.6 NW 2 4 1010.3 - 0.0 - - - - - - -
23/06:00pm 30.5 WNW 3 5 1010.1 - 0.0 - - - - - - -
23/05:30pm 31.0 NW 3 5 1009.8 - 0.0 - - - - - - -
23/05:00pm 31.6 NNW 5 8 1009.5 - 0.0 - - - - - - -
23/04:30pm 31.5 NW 6 10 1009.6 - 0.0 - - - - - - -
23/04:00pm 31.4 NW 6 10 1009.9 - 0.0 - - - - - - -
23/03:30pm 32.0 NW 6 10 1010.1 - 0.0 - - - - - - -
23/03:00pm 31.4 NNW 7 14 1010.1 - 0.0 - - - - - - -
23/02:30pm 31.6 NNW 8 14 1010.4 - 0.0 - - - - - - -
23/02:00pm 31.8 N 9 16 1010.6 - 0.0 - - - - - - -
23/01:30pm 31.8 NNW 9 13 1011.2 - 0.0 - - - - - - -
23/01:00pm 31.6 NNW 8 14 1011.7 - 0.0 - - - - - - -
23/12:30pm 31.6 N 8 13 1012.2 - 0.0 - - - - - - -
23/12:00pm 31.4 N 9 12 1012.8 - 0.0 - - - - - - -
23/11:30am 32.4 N 10 25 1013.1 - 0.0 - - - - - - -
23/11:00am 31.6 NE 7 11 1013.4 - 0.0 - - - - - - -
23/10:30am 31.2 ENE 7 13 1013.8 - 0.0 - - - - - - -
23/10:00am 30.9 ENE 7 10 1014.1 - 0.0 - - - - - - -
23/09:30am 29.9 NE 7 11 1014.2 - 0.0 - - - - - - -
23/09:00am 30.1 ENE 6 11 1014.4 - 0.0 - - - - - - -
23/08:30am 29.9 NE 5 8 1014.2 - 0.0 - - - - - - -
23/08:00am 28.7 NNE 5 8 1014.0 - 0.0 - - - - - - -
23/07:30am 27.7 NE 4 6 1013.8 - 0.0 - - - - - - -
23/07:00am 26.4 NNE 2 4 1013.3 - 0.0 - - - - - - -
23/06:30am 25.3 NE 3 4 1013.0 - 0.0 - - - - - - -
23/06:00am 25.5 NE 2 3 1012.8 - 0.0 - - - - - - -
23/05:30am 25.9 NE 3 4 1012.3 - 0.0 - - - - - - -
23/05:00am 25.8 NNE 2 3 1012.2 - 0.0 - - - - - - -
23/04:30am 26.6 ENE 2 4 1012.0 - 0.0 - - - - - - -
23/04:00am 26.6 NNE 4 7 1012.0 - 0.0 - - - - - - -
23/03:30am 26.5 NE 2 4 1012.1 - 0.0 - - - - - - -
23/03:00am 26.4 NNE 3 5 1012.1 - 0.0 - - - - - - -
23/02:30am 26.5 N 8 16 1012.1 - 0.0 - - - - - - -
23/02:00am 27.9 N 3 6 1012.3 - 0.0 - - - - - - -
23/01:30am 27.7 NNW 3 4 1012.3 - 0.0 - - - - - - -
23/01:00am 27.7 NW 3 5 1012.5 - 0.0 - - - - - - -
23/12:30am 28.0 NNW 3 5 1012.9 - 0.0 - - - - - - -
23/12:00am 28.3 NW 4 8 1013.1 - 0.0 - - - - - - -
 
Date/Time
CST
Temp

°C
Wind Pressure Rain
since 9am
mm
Weather Cloud Vis
km
Sea
Height
m
Swell
Dir
 
Speed
knots
Gust
knots
hPa Trend Height
m
Period
s
Dir
22/11:30pm 28.4 NW 2 4 1013.4 - 0.0 - - - - - - -
22/11:00pm 28.4 NW 2 5 1013.3 - 0.0 - - - - - - -
22/10:30pm 28.6 NW 3 7 1013.2 - 0.0 - - - - - - -
22/10:00pm 28.6 WNW 3 6 1012.8 - 0.0 - - - - - - -
22/09:30pm 28.7 WNW 3 5 1012.5 - 0.0 - - - - - - -
22/09:00pm 28.8 WNW 3 6 1012.1 - 0.0 - - - - - - -
22/08:30pm 29.0 W 3 6 1011.7 - 0.0 - - - - - - -
22/08:00pm 28.9 W 3 5 1011.3 - 0.0 - - - - - - -
22/07:30pm 29.0 W 3 6 1011.1 - 0.0 - - - - - - -
22/07:00pm 29.1 W 4 7 1010.8 - 0.0 - - - - - - -
22/06:30pm 29.5 WNW 3 6 1010.6 - 0.0 - - - - - - -
22/06:00pm 30.4 W 4 7 1010.2 - 0.0 - - - - - - -
22/05:30pm 30.8 W 5 7 1010.1 - 0.0 - - - - - - -
22/05:00pm 31.1 W 4 7 1010.1 - 0.0 - - - - - - -
22/04:30pm 31.2 WNW 5 8 1009.9 - 0.0 - - - - - - -
22/04:00pm 31.5 WNW 5 9 1010.1 - 0.0 - - - - - - -
22/03:30pm 31.9 NW 6 9 1010.2 - 0.0 - - - - - - -
22/03:00pm 31.0 NW 5 10 1010.6 - 0.0 - - - - - - -
22/02:30pm 31.7 NW 7 11 1010.8 - 0.0 - - - - - - -
22/02:00pm 31.4 NNW 8 12 1011.4 - 0.0 - - - - - - -
22/01:30pm 32.2 NNW 6 12 1012.0 - 0.0 - - - - - - -
22/01:00pm 32.4 N 7 11 1012.6 - 0.0 - - - - - - -
22/12:30pm 31.7 NNW 9 16 1013.0 - 0.0 - - - - - - -
22/12:00pm 32.0 NNW 7 11 1013.5 - 0.0 - - - - - - -
22/11:30am 31.3 N 4 7 1014.0 - 0.0 - - - - - - -
22/11:00am 32.1 NW 2 4 1014.4 - 0.0 - - - - - - -
22/10:30am 30.4 NNE 4 10 1014.6 - 0.0 - - - - - - -
22/10:00am 31.1 N 4 7 1014.7 - 0.0 - - - - - - -
22/09:30am 30.1 N 4 7 1014.8 - 0.0 - - - - - - -
22/09:00am 29.3 N 5 8 1014.8 - 0.0 - - - - - - -
22/08:30am 29.2 N 6 9 1014.6 - 0.0 - - - - - - -
22/08:00am 28.7 N 4 6 1014.2 - 0.0 - - - - - - -
22/07:30am 27.9 NNE 3 5 1014.1 - 0.0 - - - - - - -
22/07:00am 26.9 NNE 3 6 1013.8 - 0.0 - - - - - - -
22/06:30am 26.7 NE 4 8 1013.5 - 0.0 - - - - - - -
22/06:00am 26.6 NNE 4 7 1013.3 - 0.0 - - - - - - -
22/05:30am 26.6 NE 4 7 1013.1 - 0.0 - - - - - - -
22/05:00am 26.8 NNE 3 5 1012.8 - 0.0 - - - - - - -
22/04:30am 27.4 NE 5 8 1012.9 - 0.0 - - - - - - -
22/04:00am 27.5 NNE 4 7 1012.4 - 0.0 - - - - - - -
22/03:30am 27.5 N 4 7 1012.2 - 0.0 - - - - - - -
22/03:00am 27.5 N 4 7 1012.3 - 0.0 - - - - - - -
22/02:30am 27.6 N 3 5 1012.6 - 0.0 - - - - - - -
22/02:00am 27.0 NNW 4 8 1012.8 - 0.0 - - - - - - -
22/01:30am 26.6 NNW 4 9 1013.0 - 0.0 - - - - - - -
22/01:00am 26.2 N 3 7 1013.4 - 0.0 - - - - - - -
22/12:30am 27.3 NNE 7 14 1013.9 - 0.0 - - - - - - -
22/12:00am 28.6 W 3 5 1013.9 - 0.0 - - - - - - -
 
Date/Time
CST
Temp

°C
Wind Pressure Rain
since 9am
mm
Weather Cloud Vis
km
Sea
Height
m
Swell
Dir
 
Speed
knots
Gust
knots
hPa Trend Height
m
Period
s
Dir
21/11:30pm 28.7 W 2 4 1014.2 - 0.0 - - - - - - -
21/11:00pm 28.6 W 2 4 1014.2 - 0.0 - - - - - - -
21/10:30pm 28.7 W 2 4 1014.2 - 0.0 - - - - - - -
21/10:00pm 28.8 SW 1 4 1013.7 - 0.0 - - - - - - -
21/09:30pm 28.9 SSW 6 9 1013.1 - 0.0 - - - - - - -
21/09:00pm 29.1 SW 6 9 1012.9 - 0.0 - - - - - - -
21/08:30pm 28.9 SW 2 4 1012.5 - 0.0 - - - - - - -
21/08:00pm 28.9 SW 2 5 1012.4 - 0.0 - - - - - - -
21/07:30pm 28.8 W 1 3 1012.2 - 0.0 - - - - - - -
21/07:00pm 28.8 WNW 1 3 1011.9 - 0.0 - - - - - - -
21/06:30pm 29.4 WNW 3 5 1011.7 - 0.0 - - - - - - -
21/06:00pm 30.1 WNW 3 5 1011.3 - 0.0 - - - - - - -
21/05:30pm 30.5 W 4 7 1011.0 - 0.0 - - - - - - -
21/05:00pm 31.1 WNW 4 7 1010.9 - 0.0 - - - - - - -
21/04:30pm 31.0 WNW 4 7 1010.9 - 0.0 - - - - - - -
21/04:00pm 31.5 WNW 5 10 1010.9 - 0.0 - - - - - - -
21/03:30pm 31.6 NW 6 11 1011.2 - 0.0 - - - - - - -
21/03:00pm 31.9 NW 6 10 1011.3 - 0.0 - - - - - - -
21/02:30pm 32.3 NNW 7 13 1011.5 - 0.0 - - - - - - -
21/02:00pm 32.5 NW 6 10 1012.0 - 0.0 - - - - - - -
21/01:30pm 31.6 N 9 15 1012.5 - 0.0 - - - - - - -
21/01:00pm 32.6 N 9 14 1013.2 - 0.0 - - - - - - -
21/12:30pm 32.1 N 10 15 1013.8 - 0.0 - - - - - - -
21/12:00pm 33.3 NE 6 10 1014.5 - 0.0 - - - - - - -
21/11:30am 32.7 ENE 6 10 1015.0 - 0.0 - - - - - - -
21/11:00am 31.8 NE 8 12 1015.4 - 0.0 - - - - - - -
21/10:30am 32.3 ENE 7 12 1015.7 - 0.0 - - - - - - -
21/10:00am 31.0 E 6 10 1015.8 - 0.0 - - - - - - -
21/09:30am 30.6 E 5 9 1016.1 - 0.0 - - - - - - -
21/09:00am 29.9 ENE 6 10 1015.5 - 0.0 - - - - - - -
21/08:30am 29.7 NE 6 9 1015.1 - 0.0 - - - - - - -
21/08:00am 29.3 NE 4 7 1014.9 - 0.0 - - - - - - -
21/07:30am 28.1 NE 4 7 1014.2 - 0.0 - - - - - - -
21/07:00am 26.0 ENE 2 4 1014.3 - 0.0 - - - - - - -
21/06:30am 24.3 NE 2 4 1014.0 - 0.0 - - - - - - -

Other Formats:

Comma delimited format used in spreadsheet applications
http://www.bom.gov.au/fwo/IDD60701/IDD60701.94116.axf

JavaScript Object Notation format (JSON) in row-major order
http://www.bom.gov.au/fwo/IDD60701/IDD60701.94116.json